Time;durP1;ratioP1;P1;durP2;ratioP2;P2;SDS_P1;SDS_P2;PMS_P1;PMS_P2;Temp;Humidity;BMP_temperature;BMP_pressure;BME280_temperature;BME280_humidity;BME280_pressure;Samples;Min_cycle;Max_cycle;Signal;HPM_P1;HPM_P2
2023/08/16 00:00:45;;;;;;;5.37;3.73;;;;;;;;;;5050237;28;20185;-80
2023/08/16 00:03:12;;;;;;;4.43;3.50;;;;;;;;;;5050647;28;20185;-81
2023/08/16 00:05:40;;;;;;;5.40;3.17;;;;;;;;;;5032741;28;20210;-81
2023/08/16 00:08:07;;;;;;;4.97;3.60;;;;;;;;;;5050352;28;20743;-81
2023/08/16 00:10:33;;;;;;;3.87;3.50;;;;;;;;;;5049003;28;20235;-81
2023/08/16 00:12:59;;;;;;;3.77;3.33;;;;;;;;;;5049153;28;20185;-81
2023/08/16 00:15:26;;;;;;;4.50;3.80;;;;;;;;;;5032047;28;20209;-81
2023/08/16 00:17:53;;;;;;;4.83;4.00;;;;;;;;;;5048232;28;20185;-81
2023/08/16 00:20:20;;;;;;;5.97;4.30;;;;;;;;;;5065675;28;20184;-81
2023/08/16 00:22:46;;;;;;;4.10;3.70;;;;;;;;;;5049475;28;20260;-81
2023/08/16 00:25:12;;;;;;;5.10;4.70;;;;;;;;;;5050163;28;20267;-83
2023/08/16 00:27:39;;;;;;;4.70;4.30;;;;;;;;;;5046866;28;20228;-81
2023/08/16 00:30:06;;;;;;;4.70;4.23;;;;;;;;;;5043643;28;20186;-81
2023/08/16 00:32:32;;;;;;;4.47;4.07;;;;;;;;;;5042506;28;20186;-81
2023/08/16 00:34:58;;;;;;;4.87;4.30;;;;;;;;;;5031951;28;20186;-81
2023/08/16 00:37:24;;;;;;;5.27;4.37;;;;;;;;;;5049874;28;20185;-82
2023/08/16 00:39:51;;;;;;;4.07;3.63;;;;;;;;;;5049090;28;20281;-82
2023/08/16 00:42:17;;;;;;;6.57;4.10;;;;;;;;;;5050207;28;20190;-82
2023/08/16 00:44:43;;;;;;;3.90;3.50;;;;;;;;;;5047964;28;20223;-81
2023/08/16 00:47:09;;;;;;;4.03;3.23;;;;;;;;;;5015452;28;20581;-81
2023/08/16 00:49:39;;;;;;;3.90;3.50;;;;;;;;;;5048481;28;20272;-81
2023/08/16 00:52:06;;;;;;;3.73;3.37;;;;;;;;;;5048407;28;20273;-81
2023/08/16 00:54:32;;;;;;;4.30;3.30;;;;;;;;;;5047819;28;20186;-81
2023/08/16 00:56:58;;;;;;;3.70;3.40;;;;;;;;;;5015179;28;20246;-80
2023/08/16 00:59:27;;;;;;;5.40;3.50;;;;;;;;;;5047958;28;20181;-81
2023/08/16 01:01:53;;;;;;;3.73;3.37;;;;;;;;;;5032259;28;20254;-81
2023/08/16 01:04:19;;;;;;;4.57;3.60;;;;;;;;;;5032122;28;20221;-81
2023/08/16 01:06:46;;;;;;;4.13;3.53;;;;;;;;;;5087417;23;20311;-79
2023/08/16 01:09:12;;;;;;;3.90;3.43;;;;;;;;;;5053524;28;20671;-79
2023/08/16 01:11:41;;;;;;;3.97;3.60;;;;;;;;;;5047634;28;20188;-79
2023/08/16 01:14:14;;;;;;;4.57;3.50;;;;;;;;;;5048228;28;20283;-79
2023/08/16 01:16:40;;;;;;;5.97;3.70;;;;;;;;;;5034442;28;20209;-79
2023/08/16 01:19:11;;;;;;;4.33;3.77;;;;;;;;;;5037077;28;20194;-79
2023/08/16 01:21:42;;;;;;;4.33;3.67;;;;;;;;;;5034319;28;20783;-79
2023/08/16 01:24:14;;;;;;;4.57;3.70;;;;;;;;;;5034544;28;20220;-79
2023/08/16 01:26:41;;;;;;;4.23;3.83;;;;;;;;;;5055596;28;20210;-79
2023/08/16 01:29:08;;;;;;;6.93;4.43;;;;;;;;;;5048786;28;20263;-79
2023/08/16 01:31:34;;;;;;;5.67;4.50;;;;;;;;;;5049683;28;20185;-79
2023/08/16 01:34:01;;;;;;;6.23;4.87;;;;;;;;;;5031690;28;20193;-79
2023/08/16 01:36:27;;;;;;;6.63;4.97;;;;;;;;;;5063028;28;20204;-79
2023/08/16 01:38:54;;;;;;;8.97;4.73;;;;;;;;;;5058231;28;20197;-79
2023/08/16 01:41:39;;;;;;;5.03;4.33;;;;;;;;;;5040770;28;20194;-82
2023/08/16 01:44:08;;;;;;;6.63;3.57;;;;;;;;;;5061850;28;20520;-81
2023/08/16 01:46:34;;;;;;;6.00;4.00;;;;;;;;;;5060494;28;20293;-81
2023/08/16 01:49:01;;;;;;;4.30;3.40;;;;;;;;;;5053852;28;20183;-82
2023/08/16 01:51:27;;;;;;;4.63;4.10;;;;;;;;;;5072126;28;20174;-81
2023/08/16 01:53:54;;;;;;;6.10;4.43;;;;;;;;;;5062205;28;20193;-81
2023/08/16 01:56:20;;;;;;;4.60;4.20;;;;;;;;;;5056391;28;20492;-81
2023/08/16 01:58:47;;;;;;;4.90;4.40;;;;;;;;;;5059163;28;20274;-81
2023/08/16 02:01:14;;;;;;;7.47;5.07;;;;;;;;;;5041862;28;20218;-81
2023/08/16 02:03:40;;;;;;;5.60;4.97;;;;;;;;;;5054064;28;20218;-81
2023/08/16 02:06:06;;;;;;;6.27;4.40;;;;;;;;;;5059651;28;20217;-82
2023/08/16 02:08:38;;;;;;;4.90;4.40;;;;;;;;;;5057446;28;20669;-82
2023/08/16 02:11:04;;;;;;;5.43;4.93;;;;;;;;;;5052470;28;20719;-81
2023/08/16 02:13:31;;;;;;;5.83;5.27;;;;;;;;;;5056070;28;20217;-81
2023/08/16 02:16:03;;;;;;;6.10;5.40;;;;;;;;;;5056369;28;20284;-82
2023/08/16 02:18:31;;;;;;;4.90;4.40;;;;;;;;;;5039134;28;20712;-80
2023/08/16 02:20:58;;;;;;;5.43;4.93;;;;;;;;;;5055358;28;20217;-80
2023/08/16 02:23:24;;;;;;;7.93;5.57;;;;;;;;;;5056878;28;20216;-80
2023/08/16 02:25:50;;;;;;;5.90;5.40;;;;;;;;;;5055666;28;20623;-80
2023/08/16 02:28:16;;;;;;;7.77;5.80;;;;;;;;;;5034085;28;20239;-81
2023/08/16 02:30:43;;;;;;;6.03;5.13;;;;;;;;;;5055317;28;20657;-81
2023/08/16 02:33:09;;;;;;;6.30;5.50;;;;;;;;;;5034976;28;20323;-81
2023/08/16 02:35:35;;;;;;;5.07;4.67;;;;;;;;;;5052151;28;20206;-80
2023/08/16 02:38:01;;;;;;;5.90;5.30;;;;;;;;;;5067578;28;20194;-80
2023/08/16 02:40:27;;;;;;;4.90;4.50;;;;;;;;;;5051439;28;20235;-80
2023/08/16 02:42:53;;;;;;;6.30;4.40;;;;;;;;;;5058753;28;20629;-80
2023/08/16 02:45:19;;;;;;;5.80;4.30;;;;;;;;;;5036507;28;20228;-81
2023/08/16 02:47:46;;;;;;;5.93;4.83;;;;;;;;;;5028830;28;20182;-80
2023/08/16 02:50:12;;;;;;;6.37;4.60;;;;;;;;;;5058796;28;20243;-80
2023/08/16 02:52:39;;;;;;;5.63;5.03;;;;;;;;;;5038825;28;20578;-80
2023/08/16 02:55:05;;;;;;;5.80;5.30;;;;;;;;;;5067887;28;20205;-80
2023/08/16 02:57:31;;;;;;;6.63;5.17;;;;;;;;;;5049733;28;20181;-80
2023/08/16 02:59:57;;;;;;;5.77;4.70;;;;;;;;;;5054390;28;20181;-80
2023/08/16 03:02:27;;;;;;;5.10;4.60;;;;;;;;;;5053120;28;20256;-81
2023/08/16 03:04:54;;;;;;;5.60;4.87;;;;;;;;;;5051128;28;20245;-80
2023/08/16 03:07:20;;;;;;;5.63;4.73;;;;;;;;;;5049182;28;20690;-79
2023/08/16 03:09:46;;;;;;;4.93;4.10;;;;;;;;;;5031867;28;20193;-79
2023/08/16 03:12:12;;;;;;;5.40;4.90;;;;;;;;;;5031072;28;20186;-79
2023/08/16 03:14:39;;;;;;;4.97;4.53;;;;;;;;;;5066601;28;20221;-79
2023/08/16 03:17:05;;;;;;;5.53;4.90;;;;;;;;;;5049112;28;20206;-80
2023/08/16 03:19:32;;;;;;;5.60;5.10;;;;;;;;;;5052766;28;20197;-80
2023/08/16 03:21:58;;;;;;;5.30;4.80;;;;;;;;;;5050079;28;20664;-79
2023/08/16 03:24:26;;;;;;;6.27;5.57;;;;;;;;;;5049703;28;20625;-79
2023/08/16 03:26:52;;;;;;;7.10;6.33;;;;;;;;;;5047583;28;20209;-79
2023/08/16 03:29:19;;;;;;;7.37;6.53;;;;;;;;;;5066438;28;20834;-79
2023/08/16 03:31:46;;;;;;;6.53;5.93;;;;;;;;;;5033588;28;20213;-80
2023/08/16 03:34:14;;;;;;;7.87;5.40;;;;;;;;;;5046744;28;20676;-79
2023/08/16 03:36:40;;;;;;;6.43;5.83;;;;;;;;;;5048744;28;20214;-79
2023/08/16 03:39:06;;;;;;;6.90;5.20;;;;;;;;;;5056047;28;20181;-79
2023/08/16 03:41:33;;;;;;;6.93;6.23;;;;;;;;;;5058547;28;20263;-79
2023/08/16 03:44:00;;;;;;;6.87;5.90;;;;;;;;;;5062760;28;20217;-79
2023/08/16 03:46:27;;;;;;;4.80;4.40;;;;;;;;;;5044619;28;20209;-79
2023/08/16 03:48:53;;;;;;;4.50;3.70;;;;;;;;;;5041738;28;20224;-79
2023/08/16 03:51:19;;;;;;;3.73;3.37;;;;;;;;;;5064312;28;20226;-78
2023/08/16 03:53:45;;;;;;;4.47;3.60;;;;;;;;;;5062208;28;20194;-79
2023/08/16 03:56:11;;;;;;;5.77;4.10;;;;;;;;;;5058386;28;20208;-79
2023/08/16 03:58:37;;;;;;;4.53;4.00;;;;;;;;;;5043795;28;20193;-79
2023/08/16 04:01:04;;;;;;;6.73;5.00;;;;;;;;;;5062243;28;20606;-79
2023/08/16 04:03:30;;;;;;;5.13;4.63;;;;;;;;;;5055004;28;20231;-78
2023/08/16 04:05:56;;;;;;;5.27;4.77;;;;;;;;;;5052669;28;20482;-79
2023/08/16 04:08:22;;;;;;;8.43;5.07;;;;;;;;;;5067340;28;20189;-79
2023/08/16 04:10:49;;;;;;;6.93;5.60;;;;;;;;;;5050479;28;20177;-79
2023/08/16 04:13:17;;;;;;;6.17;5.57;;;;;;;;;;5055473;28;20258;-78
2023/08/16 04:15:43;;;;;;;6.03;5.33;;;;;;;;;;5032062;28;20209;-79
2023/08/16 04:18:09;;;;;;;7.83;5.70;;;;;;;;;;5052858;28;20552;-78
2023/08/16 04:20:35;;;;;;;6.83;5.27;;;;;;;;;;5054474;28;20193;-79
2023/08/16 04:23:01;;;;;;;5.50;5.00;;;;;;;;;;5061173;28;20179;-79
2023/08/16 04:25:28;;;;;;;6.33;5.57;;;;;;;;;;5053271;28;20317;-79
2023/08/16 04:27:54;;;;;;;6.80;5.30;;;;;;;;;;5049881;28;20189;-79
2023/08/16 04:30:22;;;;;;;6.17;5.20;;;;;;;;;;5058348;28;20632;-79
2023/08/16 04:32:48;;;;;;;5.87;5.27;;;;;;;;;;5035328;28;20691;-79
2023/08/16 04:35:14;;;;;;;6.10;5.50;;;;;;;;;;5069528;28;20186;-79
2023/08/16 04:37:40;;;;;;;6.33;5.73;;;;;;;;;;5051024;28;20224;-79
2023/08/16 04:40:07;;;;;;;6.60;5.37;;;;;;;;;;5055712;28;20186;-79
2023/08/16 04:42:34;;;;;;;9.07;6.20;;;;;;;;;;5052423;28;20185;-79
2023/08/16 04:45:03;;;;;;;11.23;7.53;;;;;;;;;;5052509;28;20745;-79
2023/08/16 04:47:30;;;;;;;7.23;6.53;;;;;;;;;;5055210;28;20213;-78
2023/08/16 04:49:56;;;;;;;6.70;6.10;;;;;;;;;;5052418;28;20267;-79
2023/08/16 04:52:23;;;;;;;7.23;6.47;;;;;;;;;;5057103;28;20194;-79
2023/08/16 04:54:49;;;;;;;8.53;7.57;;;;;;;;;;5045664;28;20197;-79
2023/08/16 04:57:15;;;;;;;7.70;7.00;;;;;;;;;;5045409;28;20209;-78
2023/08/16 04:59:41;;;;;;;7.83;6.73;;;;;;;;;;5048263;28;20189;-78
2023/08/16 05:02:08;;;;;;;7.07;6.43;;;;;;;;;;5029392;28;20198;-79
2023/08/16 05:04:34;;;;;;;9.13;6.10;;;;;;;;;;5047161;28;20206;-79
2023/08/16 05:07:00;;;;;;;6.87;6.20;;;;;;;;;;5032642;28;20252;-79
2023/08/16 05:09:27;;;;;;;7.00;5.83;;;;;;;;;;5053250;28;20194;-79
2023/08/16 05:11:53;;;;;;;7.43;5.90;;;;;;;;;;5049299;28;20224;-79
2023/08/16 05:14:19;;;;;;;6.37;5.60;;;;;;;;;;5055283;28;20557;-79
2023/08/16 05:16:45;;;;;;;6.83;5.80;;;;;;;;;;5049566;28;20206;-79
2023/08/16 05:19:11;;;;;;;5.37;4.87;;;;;;;;;;5053740;28;20731;-79
2023/08/16 05:21:38;;;;;;;6.60;4.87;;;;;;;;;;5040745;28;20528;-78
2023/08/16 05:24:04;;;;;;;5.73;5.00;;;;;;;;;;5053063;28;20216;-78
2023/08/16 05:26:31;;;;;;;6.10;5.07;;;;;;;;;;5069330;28;20201;-79
2023/08/16 05:28:58;;;;;;;8.80;5.27;;;;;;;;;;5064388;28;20185;-79
2023/08/16 05:31:24;;;;;;;7.70;5.80;;;;;;;;;;5031274;28;20517;-79
2023/08/16 05:33:50;;;;;;;5.50;5.00;;;;;;;;;;5032930;28;20178;-78
2023/08/16 05:36:16;;;;;;;7.30;5.63;;;;;;;;;;5057010;28;20213;-78
2023/08/16 05:38:42;;;;;;;8.57;5.80;;;;;;;;;;5058262;28;20277;-79
2023/08/16 05:41:08;;;;;;;5.83;5.00;;;;;;;;;;5054768;28;20186;-76
2023/08/16 05:43:35;;;;;;;6.50;5.23;;;;;;;;;;5056850;28;20216;-78
2023/08/16 05:46:02;;;;;;;6.30;5.10;;;;;;;;;;5056744;28;20197;-80
2023/08/16 05:48:28;;;;;;;6.07;5.27;;;;;;;;;;5052026;28;20181;-76
2023/08/16 05:50:55;;;;;;;5.80;5.30;;;;;;;;;;5057666;28;20192;-76
2023/08/16 05:53:22;;;;;;;6.47;4.90;;;;;;;;;;5056193;28;20212;-76
2023/08/16 05:55:48;;;;;;;5.67;5.00;;;;;;;;;;5055239;28;20213;-75
2023/08/16 05:58:14;;;;;;;5.63;4.83;;;;;;;;;;5050511;28;20196;-76
2023/08/16 06:00:40;;;;;;;7.43;5.70;;;;;;;;;;5052253;28;20783;-76
2023/08/16 06:03:06;;;;;;;5.73;5.10;;;;;;;;;;5063367;28;20185;-76
2023/08/16 06:05:32;;;;;;;7.00;6.00;;;;;;;;;;5041259;28;20221;-74
2023/08/16 06:07:58;;;;;;;6.93;5.40;;;;;;;;;;5060563;28;20300;-74
2023/08/16 06:10:25;;;;;;;6.50;5.90;;;;;;;;;;5051197;28;20215;-74
2023/08/16 06:12:51;;;;;;;6.53;5.90;;;;;;;;;;5067372;28;20276;-75
2023/08/16 06:15:17;;;;;;;7.47;5.63;;;;;;;;;;5051151;28;20555;-76
2023/08/16 06:17:43;;;;;;;7.43;5.37;;;;;;;;;;5045288;28;20193;-76
2023/08/16 06:20:10;;;;;;;7.13;5.87;;;;;;;;;;5056124;28;20326;-75
2023/08/16 06:22:37;;;;;;;9.40;6.90;;;;;;;;;;5059337;28;20193;-76
2023/08/16 06:25:04;;;;;;;6.87;6.17;;;;;;;;;;5055305;28;20205;-75
2023/08/16 06:27:31;;;;;;;6.77;6.07;;;;;;;;;;5034974;28;20178;-74
2023/08/16 06:29:57;;;;;;;7.30;6.60;;;;;;;;;;5052880;28;20678;-74
2023/08/16 06:32:23;;;;;;;8.27;7.00;;;;;;;;;;5057216;28;20188;-75
2023/08/16 06:34:49;;;;;;;10.67;7.73;;;;;;;;;;5053175;28;21627;-74
2023/08/16 06:37:15;;;;;;;9.13;7.20;;;;;;;;;;5062698;28;20233;-75
2023/08/16 06:39:42;;;;;;;7.67;6.60;;;;;;;;;;5057196;28;20196;-75
2023/08/16 06:42:09;;;;;;;10.73;7.33;;;;;;;;;;5056051;28;20181;-76
2023/08/16 06:44:36;;;;;;;9.87;7.17;;;;;;;;;;5053180;28;20300;-74
2023/08/16 06:47:03;;;;;;;8.97;7.70;;;;;;;;;;5060724;28;20254;-78
2023/08/16 06:49:30;;;;;;;7.83;6.83;;;;;;;;;;5054760;28;20202;-76
2023/08/16 06:51:56;;;;;;;9.43;6.20;;;;;;;;;;5034218;28;20558;-76
2023/08/16 06:54:23;;;;;;;6.57;5.97;;;;;;;;;;5048085;28;20181;-76
2023/08/16 06:56:49;;;;;;;6.27;5.67;;;;;;;;;;5036839;28;20283;-76
2023/08/16 06:59:15;;;;;;;7.77;5.90;;;;;;;;;;5048827;28;20181;-76
2023/08/16 07:01:41;;;;;;;8.30;7.20;;;;;;;;;;5053442;28;20193;-75
2023/08/16 07:04:08;;;;;;;8.57;6.83;;;;;;;;;;5046696;28;20233;-75
2023/08/16 07:06:34;;;;;;;11.27;7.43;;;;;;;;;;5049834;28;20656;-75
2023/08/16 07:09:00;;;;;;;7.53;6.83;;;;;;;;;;5089646;22;20236;-79
2023/08/16 07:11:26;;;;;;;7.27;6.67;;;;;;;;;;5063901;28;20660;-78
2023/08/16 07:13:52;;;;;;;8.70;7.90;;;;;;;;;;5049733;28;20185;-78
2023/08/16 07:16:19;;;;;;;8.33;7.53;;;;;;;;;;5058615;28;20185;-78
2023/08/16 07:18:45;;;;;;;9.03;8.20;;;;;;;;;;5049288;28;20708;-79
2023/08/16 07:21:12;;;;;;;9.00;8.10;;;;;;;;;;5053666;28;20213;-78
2023/08/16 07:23:38;;;;;;;8.63;7.10;;;;;;;;;;5053229;28;20214;-78
2023/08/16 07:26:04;;;;;;;8.33;7.17;;;;;;;;;;5034601;28;20280;-78
2023/08/16 07:28:30;;;;;;;8.10;7.20;;;;;;;;;;5050799;28;20208;-78
2023/08/16 07:30:56;;;;;;;7.40;6.70;;;;;;;;;;5052432;28;20265;-78
2023/08/16 07:33:23;;;;;;;7.97;6.33;;;;;;;;;;5051481;28;20181;-78
2023/08/16 07:35:49;;;;;;;6.90;6.30;;;;;;;;;;5047583;28;20255;-78
2023/08/16 07:38:15;;;;;;;7.07;6.07;;;;;;;;;;5050659;28;20579;-78
2023/08/16 07:40:47;;;;;;;9.53;6.60;;;;;;;;;;5050815;28;20274;-78
2023/08/16 07:43:13;;;;;;;8.87;7.00;;;;;;;;;;5029158;28;20178;-78
2023/08/16 07:45:40;;;;;;;8.37;6.97;;;;;;;;;;5050978;28;20252;-78
2023/08/16 07:48:06;;;;;;;7.80;6.07;;;;;;;;;;5049265;28;20230;-78
2023/08/16 07:50:32;;;;;;;7.80;7.00;;;;;;;;;;5050046;28;20974;-78
2023/08/16 07:52:58;;;;;;;7.37;6.60;;;;;;;;;;5044531;28;20188;-78
2023/08/16 07:55:31;;;;;;;6.67;6.00;;;;;;;;;;5047285;28;20199;-79
2023/08/16 07:57:58;;;;;;;6.07;5.53;;;;;;;;;;5046915;28;20572;-79
2023/08/16 08:00:24;;;;;;;6.37;5.43;;;;;;;;;;5050894;28;20261;-78
2023/08/16 08:02:50;;;;;;;6.73;6.03;;;;;;;;;;5050961;28;20186;-79
2023/08/16 08:05:16;;;;;;;7.40;6.17;;;;;;;;;;5033263;28;20842;-79
2023/08/16 08:07:43;;;;;;;7.30;6.57;;;;;;;;;;5049929;28;20266;-79
2023/08/16 08:10:10;;;;;;;7.10;6.40;;;;;;;;;;5046975;28;20186;-79
2023/08/16 08:12:36;;;;;;;7.17;6.47;;;;;;;;;;5050293;28;20186;-79
2023/08/16 08:15:02;;;;;;;6.27;5.67;;;;;;;;;;5050836;28;20321;-78
2023/08/16 08:17:28;;;;;;;6.40;5.80;;;;;;;;;;5046142;28;20224;-79
2023/08/16 08:19:54;;;;;;;6.23;5.63;;;;;;;;;;5050709;28;20267;-79
2023/08/16 08:22:20;;;;;;;6.50;5.90;;;;;;;;;;5051152;28;20600;-79
2023/08/16 08:24:46;;;;;;;6.10;5.57;;;;;;;;;;5049481;28;20652;-79
2023/08/16 08:27:12;;;;;;;7.67;6.20;;;;;;;;;;5049823;28;20348;-78
2023/08/16 08:29:40;;;;;;;6.07;5.47;;;;;;;;;;5049211;28;20184;-79
2023/08/16 08:32:06;;;;;;;6.87;5.87;;;;;;;;;;5050696;28;20173;-79
2023/08/16 08:34:32;;;;;;;6.30;5.80;;;;;;;;;;5048558;28;20182;-78
2023/08/16 08:37:00;;;;;;;6.70;6.10;;;;;;;;;;5050023;28;20289;-80
2023/08/16 08:39:28;;;;;;;6.20;5.70;;;;;;;;;;5045789;28;20181;-78
2023/08/16 08:41:55;;;;;;;5.73;5.23;;;;;;;;;;5050661;28;20221;-78
2023/08/16 08:44:22;;;;;;;5.60;5.07;;;;;;;;;;5049004;28;20782;-78
2023/08/16 08:46:49;;;;;;;6.77;6.10;;;;;;;;;;5050140;28;20178;-77
2023/08/16 08:49:15;;;;;;;8.03;4.97;;;;;;;;;;5049160;28;20220;-78
2023/08/16 08:51:42;;;;;;;5.40;4.90;;;;;;;;;;5049397;28;20184;-80
2023/08/16 08:54:09;;;;;;;5.77;5.27;;;;;;;;;;5049110;28;20191;-77
2023/08/16 08:56:36;;;;;;;5.10;4.60;;;;;;;;;;5049026;28;20182;-77
2023/08/16 08:59:02;;;;;;;5.43;4.93;;;;;;;;;;5049817;28;20210;-79
2023/08/16 09:01:29;;;;;;;5.30;4.73;;;;;;;;;;5049827;28;20284;-77
2023/08/16 09:03:57;;;;;;;4.37;3.97;;;;;;;;;;5049566;28;20294;-77
2023/08/16 09:06:24;;;;;;;3.87;3.57;;;;;;;;;;5047925;28;20250;-77
2023/08/16 09:08:51;;;;;;;4.40;4.00;;;;;;;;;;5049048;28;20638;-77
2023/08/16 09:11:17;;;;;;;5.40;4.50;;;;;;;;;;5048385;28;20644;-77
2023/08/16 09:13:44;;;;;;;4.37;3.97;;;;;;;;;;5049499;28;20195;-79
2023/08/16 09:16:10;;;;;;;4.17;3.77;;;;;;;;;;5048605;28;20571;-78
2023/08/16 09:18:36;;;;;;;4.40;4.00;;;;;;;;;;5048263;28;20612;-78
2023/08/16 09:21:03;;;;;;;4.73;4.30;;;;;;;;;;5048926;28;20227;-77
2023/08/16 09:23:32;;;;;;;4.20;3.80;;;;;;;;;;5049118;28;20189;-77
2023/08/16 09:25:59;;;;;;;4.10;3.70;;;;;;;;;;5049547;28;20259;-78
2023/08/16 09:28:30;;;;;;;5.10;3.73;;;;;;;;;;5028228;28;20673;-77
2023/08/16 09:30:56;;;;;;;3.63;3.13;;;;;;;;;;5049605;28;20212;-77
2023/08/16 09:33:24;;;;;;;4.87;4.13;;;;;;;;;;5048315;28;20197;-77
2023/08/16 09:35:51;;;;;;;4.40;4.00;;;;;;;;;;5044477;28;20239;-77
2023/08/16 09:38:20;;;;;;;4.90;3.90;;;;;;;;;;5047392;28;20554;-78
2023/08/16 09:40:53;;;;;;;6.73;4.37;;;;;;;;;;5053449;28;20175;-79
2023/08/16 09:43:20;;;;;;;4.40;4.00;;;;;;;;;;5045637;28;20657;-78
2023/08/16 09:45:51;;;;;;;4.60;4.17;;;;;;;;;;5044085;28;20677;-77
2023/08/16 09:48:21;;;;;;;3.83;3.53;;;;;;;;;;5046686;28;20221;-78
2023/08/16 09:50:48;;;;;;;4.30;4.00;;;;;;;;;;5042295;28;20553;-78
2023/08/16 09:53:15;;;;;;;3.90;3.53;;;;;;;;;;5048686;28;20174;-77
2023/08/16 09:55:43;;;;;;;3.77;3.37;;;;;;;;;;5047633;28;20236;-77
2023/08/16 09:58:11;;;;;;;4.70;3.20;;;;;;;;;;5047099;28;20444;-77
2023/08/16 10:00:37;;;;;;;4.57;3.07;;;;;;;;;;5046335;28;20196;-77
2023/08/16 10:03:04;;;;;;;3.23;2.93;;;;;;;;;;5049098;28;20188;-77
2023/08/16 10:05:30;;;;;;;4.37;2.90;;;;;;;;;;5039712;28;20320;-77
2023/08/16 10:08:00;;;;;;;3.23;3.03;;;;;;;;;;5047362;28;20224;-78
2023/08/16 10:10:26;;;;;;;3.50;3.23;;;;;;;;;;5049995;28;20209;-78
2023/08/16 10:12:54;;;;;;;4.37;3.40;;;;;;;;;;5048668;28;20182;-79
2023/08/16 10:15:20;;;;;;;3.40;3.10;;;;;;;;;;5050991;28;20225;-77
2023/08/16 10:17:48;;;;;;;4.63;3.27;;;;;;;;;;5046267;28;20714;-77
2023/08/16 10:20:18;;;;;;;3.30;3.00;;;;;;;;;;5049430;28;20190;-79
2023/08/16 10:22:50;;;;;;;3.73;3.13;;;;;;;;;;5052224;28;20192;-79
2023/08/16 10:25:23;;;;;;;3.30;3.00;;;;;;;;;;5053052;28;20210;-79
2023/08/16 10:27:49;;;;;;;3.30;3.00;;;;;;;;;;5051723;28;20224;-79
2023/08/16 10:30:23;;;;;;;4.67;3.03;;;;;;;;;;5047025;28;20553;-80
2023/08/16 10:32:52;;;;;;;3.30;3.00;;;;;;;;;;5044083;28;20178;-79
2023/08/16 10:35:18;;;;;;;4.10;3.70;;;;;;;;;;5051128;28;20240;-79
2023/08/16 10:37:46;;;;;;;4.67;3.20;;;;;;;;;;5050802;28;20680;-79
2023/08/16 10:40:19;;;;;;;3.63;3.20;;;;;;;;;;5050412;28;20284;-80
2023/08/16 10:42:49;;;;;;;3.50;3.20;;;;;;;;;;5051312;28;20208;-80
2023/08/16 10:45:22;;;;;;;3.17;2.93;;;;;;;;;;5050746;28;20201;-80
2023/08/16 10:47:48;;;;;;;3.77;3.47;;;;;;;;;;5049765;28;20194;-79
2023/08/16 10:50:14;;;;;;;4.10;3.30;;;;;;;;;;5050703;28;20244;-79
2023/08/16 10:52:42;;;;;;;3.77;3.47;;;;;;;;;;5049937;28;20178;-79
2023/08/16 10:55:08;;;;;;;4.17;3.77;;;;;;;;;;5044759;28;20194;-79
2023/08/16 10:57:34;;;;;;;4.00;3.60;;;;;;;;;;5049677;28;20583;-79
2023/08/16 11:00:09;;;;;;;5.07;3.80;;;;;;;;;;5052238;28;20193;-79
2023/08/16 11:02:37;;;;;;;4.37;3.90;;;;;;;;;;5050372;28;20661;-78
2023/08/16 11:05:03;;;;;;;5.53;3.80;;;;;;;;;;5051531;28;20676;-79
2023/08/16 11:07:29;;;;;;;4.33;3.87;;;;;;;;;;5049152;28;20206;-79
2023/08/16 11:10:00;;;;;;;4.13;3.73;;;;;;;;;;5051419;28;20651;-80
2023/08/16 11:12:34;;;;;;;4.00;3.50;;;;;;;;;;5036226;28;20264;-79
2023/08/16 11:15:00;;;;;;;4.00;3.60;;;;;;;;;;5054202;28;20182;-78
2023/08/16 11:17:28;;;;;;;4.50;4.10;;;;;;;;;;5052520;28;20243;-78
2023/08/16 11:19:54;;;;;;;4.57;4.17;;;;;;;;;;5053786;28;20201;-79
2023/08/16 11:22:21;;;;;;;8.20;4.60;;;;;;;;;;5036126;28;20214;-79
2023/08/16 11:24:48;;;;;;;4.87;4.00;;;;;;;;;;5047297;28;20259;-79
2023/08/16 11:27:20;;;;;;;4.00;3.70;;;;;;;;;;5050402;28;20331;-79
2023/08/16 11:29:50;;;;;;;4.27;3.87;;;;;;;;;;5043399;28;20207;-79
2023/08/16 11:32:17;;;;;;;4.83;3.97;;;;;;;;;;5050674;28;20187;-79
2023/08/16 11:34:43;;;;;;;4.17;3.80;;;;;;;;;;5050319;28;20190;-79
2023/08/16 11:37:18;;;;;;;4.60;4.10;;;;;;;;;;5046542;28;20181;-79
2023/08/16 11:39:44;;;;;;;4.33;3.93;;;;;;;;;;5050590;28;20229;-79
2023/08/16 11:42:10;;;;;;;5.83;4.60;;;;;;;;;;5051056;28;20178;-80
2023/08/16 11:44:40;;;;;;;4.90;4.30;;;;;;;;;;5050907;28;20261;-79
2023/08/16 11:47:09;;;;;;;6.33;3.80;;;;;;;;;;5050538;28;20230;-79
2023/08/16 11:49:36;;;;;;;4.40;4.10;;;;;;;;;;5049228;28;20181;-79
2023/08/16 11:52:03;;;;;;;4.77;4.33;;;;;;;;;;5033324;28;20178;-79
2023/08/16 11:54:29;;;;;;;4.50;3.97;;;;;;;;;;5049431;28;20191;-79
2023/08/16 11:56:55;;;;;;;4.60;4.20;;;;;;;;;;5049861;28;20181;-79
2023/08/16 11:59:28;;;;;;;4.60;4.20;;;;;;;;;;5049910;28;20210;-79
2023/08/16 12:01:55;;;;;;;4.77;3.90;;;;;;;;;;5050817;28;20329;-79
2023/08/16 12:04:24;;;;;;;4.43;4.07;;;;;;;;;;5050206;28;20227;-78
2023/08/16 12:06:50;;;;;;;5.10;4.10;;;;;;;;;;5041874;28;20187;-79
2023/08/16 12:09:17;;;;;;;6.00;3.80;;;;;;;;;;5049292;28;20208;-79
2023/08/16 12:11:43;;;;;;;4.20;3.90;;;;;;;;;;5048587;28;20255;-79
2023/08/16 12:14:10;;;;;;;4.00;3.70;;;;;;;;;;5050221;28;20188;-79
2023/08/16 12:16:36;;;;;;;6.07;4.10;;;;;;;;;;5046044;28;20186;-79
2023/08/16 12:19:02;;;;;;;4.27;3.87;;;;;;;;;;5045871;28;20214;-78
2023/08/16 12:21:28;;;;;;;5.50;4.10;;;;;;;;;;5049007;28;20186;-79
2023/08/16 12:23:54;;;;;;;5.83;4.23;;;;;;;;;;5049723;28;20205;-79
2023/08/16 12:26:22;;;;;;;4.70;4.30;;;;;;;;;;5048196;28;20189;-79
2023/08/16 12:28:48;;;;;;;4.70;4.20;;;;;;;;;;5039702;28;20677;-79
2023/08/16 12:31:14;;;;;;;4.40;4.00;;;;;;;;;;5048007;28;20183;-79
2023/08/16 12:33:41;;;;;;;4.10;3.70;;;;;;;;;;5049304;28;20227;-79
2023/08/16 12:36:07;;;;;;;5.23;3.60;;;;;;;;;;5050021;28;20180;-79
2023/08/16 12:38:33;;;;;;;4.87;3.60;;;;;;;;;;5049244;28;20289;-79
2023/08/16 12:40:59;;;;;;;5.60;3.40;;;;;;;;;;5049855;28;20201;-79
2023/08/16 12:43:26;;;;;;;5.43;3.40;;;;;;;;;;5027199;28;20187;-79
2023/08/16 12:45:52;;;;;;;3.43;3.13;;;;;;;;;;5031856;28;20290;-79
2023/08/16 12:48:18;;;;;;;3.70;3.40;;;;;;;;;;5048038;28;20203;-79
2023/08/16 12:50:44;;;;;;;3.93;3.33;;;;;;;;;;5049615;28;20547;-79
2023/08/16 12:53:10;;;;;;;3.57;3.27;;;;;;;;;;5048964;28;20236;-79
2023/08/16 12:55:36;;;;;;;4.53;3.47;;;;;;;;;;5048242;28;20625;-80
2023/08/16 12:58:02;;;;;;;3.63;3.20;;;;;;;;;;5049169;28;20220;-80
2023/08/16 13:00:29;;;;;;;3.67;3.37;;;;;;;;;;5042067;28;20186;-79
2023/08/16 13:02:57;;;;;;;3.30;3.10;;;;;;;;;;5049889;28;20186;-79
2023/08/16 13:05:24;;;;;;;3.57;3.20;;;;;;;;;;5049029;28;20241;-79
2023/08/16 13:07:50;;;;;;;4.17;3.53;;;;;;;;;;5072508;22;20654;-77
2023/08/16 13:10:17;;;;;;;5.17;3.70;;;;;;;;;;5049152;28;20190;-76
2023/08/16 13:12:43;;;;;;;3.73;3.43;;;;;;;;;;5043621;28;20184;-76
2023/08/16 13:15:09;;;;;;;3.27;2.97;;;;;;;;;;5048184;28;20214;-76
2023/08/16 13:17:35;;;;;;;4.43;3.00;;;;;;;;;;5035987;28;20181;-76
2023/08/16 13:20:03;;;;;;;3.60;3.30;;;;;;;;;;5043011;28;20832;-77
2023/08/16 13:22:30;;;;;;;3.40;3.10;;;;;;;;;;5040983;28;20228;-76
2023/08/16 13:24:56;;;;;;;3.83;3.10;;;;;;;;;;5049031;28;20224;-76
2023/08/16 13:27:22;;;;;;;3.90;2.73;;;;;;;;;;5048752;28;20189;-77
2023/08/16 13:29:48;;;;;;;3.20;3.00;;;;;;;;;;5049546;28;20211;-76
2023/08/16 13:32:14;;;;;;;4.20;3.40;;;;;;;;;;5049744;28;20263;-76
2023/08/16 13:34:40;;;;;;;4.00;2.97;;;;;;;;;;5047296;28;20703;-76
2023/08/16 13:37:07;;;;;;;3.30;3.00;;;;;;;;;;5048850;28;20183;-76
2023/08/16 13:39:33;;;;;;;4.30;3.07;;;;;;;;;;5047917;28;20345;-76
2023/08/16 13:42:00;;;;;;;3.33;3.10;;;;;;;;;;5052073;28;20179;-77
2023/08/16 13:44:27;;;;;;;5.43;3.10;;;;;;;;;;5052974;28;20219;-77
2023/08/16 13:46:53;;;;;;;5.85;3.03;;;;;;;;;;5052841;28;20188;-77
2023/08/16 13:49:20;;;;;;;5.25;3.10;;;;;;;;;;5052121;28;20211;-76
2023/08/16 13:51:46;;;;;;;3.63;3.20;;;;;;;;;;5052843;28;20180;-76
2023/08/16 13:54:12;;;;;;;3.50;3.20;;;;;;;;;;5052015;28;20186;-76
2023/08/16 13:56:38;;;;;;;3.30;2.88;;;;;;;;;;5050409;28;20237;-77
2023/08/16 13:59:04;;;;;;;3.63;3.15;;;;;;;;;;5027250;28;20244;-76
2023/08/16 14:01:30;;;;;;;3.30;3.00;;;;;;;;;;5052762;28;20248;-76
2023/08/16 14:03:59;;;;;;;3.38;2.95;;;;;;;;;;5051059;28;20217;-76
2023/08/16 14:06:25;;;;;;;4.30;3.10;;;;;;;;;;5054239;28;20661;-81
2023/08/16 14:08:51;;;;;;;3.25;2.80;;;;;;;;;;5056429;28;20217;-80
2023/08/16 14:11:17;;;;;;;4.32;3.10;;;;;;;;;;5055228;28;20217;-79
2023/08/16 14:13:44;;;;;;;3.30;3.00;;;;;;;;;;5051440;28;20208;-79
2023/08/16 14:16:10;;;;;;;4.20;3.30;;;;;;;;;;5052253;28;20686;-79
2023/08/16 14:18:37;;;;;;;3.25;2.90;;;;;;;;;;5051692;28;20205;-79
2023/08/16 14:21:03;;;;;;;3.30;3.00;;;;;;;;;;5052678;28;20184;-79
2023/08/16 14:23:30;;;;;;;2.77;2.57;;;;;;;;;;5051775;28;20286;-79
2023/08/16 14:25:56;;;;;;;3.53;3.23;;;;;;;;;;5049762;28;20239;-79
2023/08/16 14:28:22;;;;;;;3.00;2.80;;;;;;;;;;5033705;28;20311;-79
2023/08/16 14:30:49;;;;;;;3.75;3.13;;;;;;;;;;5050556;28;20593;-79
2023/08/16 14:33:15;;;;;;;4.22;3.20;;;;;;;;;;5045331;28;20188;-79
2023/08/16 14:35:42;;;;;;;3.05;2.80;;;;;;;;;;5050267;28;20914;-80
2023/08/16 14:38:09;;;;;;;3.30;3.00;;;;;;;;;;5049698;28;20208;-79
2023/08/16 14:40:36;;;;;;;4.25;3.28;;;;;;;;;;5050455;28;20181;-79